Time;durP1;ratioP1;P1;durP2;ratioP2;P2;SDS_P1;SDS_P2;PMS_P1;PMS_P2;Temp;Humidity;BMP_temperature;BMP_pressure;BME280_temperature;BME280_humidity;BME280_pressure;Samples;Min_cycle;Max_cycle;Signal;HPM_P1;HPM_P2
2022/09/18 00:01:35;;;;;;;3.63;1.30;;;;;;;22.45;44.29;101568.63;5057052;28;20551;-44
2022/09/18 00:04:03;;;;;;;4.05;1.30;;;;;;;22.46;44.40;101575.75;5055108;28;20036;-32
2022/09/18 00:06:31;;;;;;;3.28;1.13;;;;;;;22.48;44.63;101565.69;5056321;28;20055;-44
2022/09/18 00:08:58;;;;;;;1.98;0.98;;;;;;;22.48;44.38;101575.63;5055496;28;20031;-44
2022/09/18 00:11:26;;;;;;;3.15;1.00;;;;;;;22.44;44.43;101563.38;5057111;28;20043;-32
2022/09/18 00:13:52;;;;;;;2.75;1.10;;;;;;;22.44;44.43;101574.16;5036885;28;20062;-33
2022/09/18 00:16:20;;;;;;;2.70;1.17;;;;;;;22.41;44.49;101570.72;5055961;28;20044;-44
2022/09/18 00:18:46;;;;;;;1.85;0.95;;;;;;;22.42;44.36;101569.75;5054142;28;20038;-44
2022/09/18 00:21:18;;;;;;;3.45;1.10;;;;;;;22.41;44.35;101570.72;5056434;28;20133;-31
2022/09/18 00:23:44;;;;;;;4.18;1.15;;;;;;;22.40;44.32;101574.44;5055422;28;20031;-43
2022/09/18 00:26:11;;;;;;;2.60;0.98;;;;;;;22.39;44.02;101570.03;5056291;28;20044;-31
2022/09/18 00:28:37;;;;;;;3.70;1.10;;;;;;;22.36;44.59;101566.69;5054251;28;20036;-32
2022/09/18 00:31:12;;;;;;;3.60;1.30;;;;;;;22.38;44.73;101567.47;5051201;28;20352;-44
2022/09/18 00:33:38;;;;;;;3.08;1.35;;;;;;;22.38;44.75;101564.75;5055618;28;20478;-30
2022/09/18 00:36:06;;;;;;;2.17;1.00;;;;;;;22.38;44.60;101568.31;5055656;28;20036;-30
2022/09/18 00:38:32;;;;;;;2.53;1.10;;;;;;;22.35;44.60;101563.09;5055279;28;20394;-30
2022/09/18 00:40:58;;;;;;;2.85;1.30;;;;;;;22.31;44.50;101569.75;5055833;28;20024;-32
2022/09/18 00:43:28;;;;;;;3.20;1.10;;;;;;;22.30;44.64;101568.03;5070004;27;20586;-30
2022/09/18 00:45:58;;;;;;;2.78;1.10;;;;;;;22.31;44.62;101585.09;5055300;28;20039;-44
2022/09/18 00:48:29;;;;;;;3.05;1.10;;;;;;;22.30;44.43;101602.25;5054326;28;20524;-44
2022/09/18 00:50:55;;;;;;;2.80;1.20;;;;;;;22.26;44.56;101602.53;5055114;28;20029;-44
2022/09/18 00:53:21;;;;;;;2.38;1.20;;;;;;;22.30;44.49;101603.09;5055281;28;20648;-31
2022/09/18 00:55:47;;;;;;;3.60;1.40;;;;;;;22.31;44.24;101593.19;5055917;28;20039;-45
2022/09/18 00:58:12;;;;;;;4.90;1.33;;;;;;;22.27;44.59;101582.63;5054406;28;20063;-44
2022/09/18 01:00:38;;;;;;;2.83;1.08;;;;;;;22.27;44.72;101585.34;5055815;28;20028;-38
2022/09/18 01:03:04;;;;;;;2.50;1.00;;;;;;;22.27;44.70;101582.63;5054314;28;20724;-31
2022/09/18 01:05:51;;;;;;;2.22;0.98;;;;;;;22.25;44.66;101572.97;5054580;28;20760;-34
2022/09/18 01:09:04;;;;;;;2.00;0.90;;;;;;;22.24;44.76;101572.13;5056133;28;20031;-31
2022/09/18 01:11:40;;;;;;;2.90;1.20;;;;;;;22.20;44.60;101569.78;4994738;28;21343;-31
2022/09/18 01:14:43;;;;;;;3.72;1.27;;;;;;;22.21;44.82;101563.41;5055036;28;20028;-31
2022/09/18 01:17:28;;;;;;;4.32;1.10;;;;;;;22.21;44.88;101560.72;5054747;28;20020;-45
2022/09/18 01:20:24;;;;;;;3.47;1.20;;;;;;;22.18;44.71;101550.19;5054646;28;20059;-44
2022/09/18 01:23:26;;;;;;;3.95;1.45;;;;;;;22.19;44.84;101552.75;5070419;27;20032;-44
2022/09/18 01:26:00;;;;;;;;;;;;;;;22.16;44.92;101547.63;5030881;28;20133;-44
2022/09/18 01:28:38;;;;;;;2.38;1.00;;;;;;;22.16;44.99;101538.66;5055303;28;19919;-44
2022/09/18 01:31:12;;;;;;;2.30;1.00;;;;;;;22.13;45.06;101550.56;5055649;28;20044;-33
2022/09/18 01:33:50;;;;;;;2.47;1.00;;;;;;;22.13;45.09;101536.22;5054571;28;20111;-44
2022/09/18 01:36:20;;;;;;;2.22;0.88;;;;;;;22.13;44.89;101541.63;5054656;28;21199;-44
2022/09/18 01:39:14;;;;;;;3.17;1.15;;;;;;;22.10;45.27;101540.88;5053767;28;21147;-33
2022/09/18 01:41:49;;;;;;;3.28;1.20;;;;;;;22.09;45.18;101536.47;5051104;28;20039;-44
2022/09/18 01:44:19;;;;;;;1.25;0.88;;;;;;;22.08;45.37;101534.78;5051907;28;20140;-43
2022/09/18 01:46:45;;;;;;;2.83;1.00;;;;;;;22.07;45.21;101526.78;5054803;28;20420;-44
2022/09/18 01:49:15;;;;;;;3.00;0.88;;;;;;;22.05;45.60;101526.94;5054556;28;20031;-30
2022/09/18 01:51:53;;;;;;;2.00;1.10;;;;;;;22.08;45.17;101528.50;5053901;28;20063;-31
2022/09/18 01:54:24;;;;;;;3.30;1.13;;;;;;;22.10;45.20;101529.25;5035122;28;20558;-30
2022/09/18 01:56:54;;;;;;;1.33;0.87;;;;;;;22.05;45.14;101529.63;5054202;28;20024;-31
2022/09/18 01:59:43;;;;;;;1.55;0.70;;;;;;;22.05;44.95;101524.22;5052862;28;20416;-44
2022/09/18 02:02:17;;;;;;;2.30;1.10;;;;;;;22.03;45.29;101515.41;5053572;28;20688;-44
2022/09/18 02:04:46;;;;;;;1.58;0.90;;;;;;;22.02;45.36;101529.00;5035411;28;20043;-30
2022/09/18 02:07:26;;;;;;;5.15;1.20;;;;;;;22.03;45.07;101518.09;5043184;28;20097;-31
2022/09/18 02:09:52;;;;;;;2.83;1.10;;;;;;;22.02;45.19;101521.81;5054822;28;20032;-30
2022/09/18 02:12:21;;;;;;;1.52;0.95;;;;;;;21.99;45.08;101527.44;5053287;28;20301;-43
2022/09/18 02:14:51;;;;;;;2.47;1.10;;;;;;;21.97;45.51;101539.31;5053905;28;20028;-44
2022/09/18 02:17:28;;;;;;;2.35;0.80;;;;;;;21.99;45.25;101529.28;5053594;28;20039;-44
2022/09/18 02:19:58;;;;;;;2.30;1.00;;;;;;;22.02;45.26;101523.63;5052686;28;20034;-44
2022/09/18 02:22:29;;;;;;;2.43;0.87;;;;;;;22.04;45.25;101522.50;5053358;28;20028;-44
2022/09/18 02:24:58;;;;;;;3.47;1.38;;;;;;;22.01;45.11;101516.50;5054286;28;20286;-44
2022/09/18 02:27:26;;;;;;;2.60;0.90;;;;;;;22.00;45.16;101523.75;5053239;28;20028;-44
2022/09/18 02:29:54;;;;;;;2.60;1.17;;;;;;;21.99;45.00;101521.19;5055725;28;20040;-30
2022/09/18 02:32:19;;;;;;;2.15;1.00;;;;;;;21.97;45.35;101517.75;5052272;28;20944;-43
2022/09/18 02:34:45;;;;;;;1.17;0.77;;;;;;;22.00;45.49;101523.75;5054872;28;20429;-43
2022/09/18 02:37:36;;;;;;;2.30;0.90;;;;;;;21.99;45.02;101518.50;5053526;28;20473;-44
2022/09/18 02:40:33;;;;;;;2.22;0.80;;;;;;;21.98;45.13;101524.88;5044695;28;20120;-43
2022/09/18 02:43:08;;;;;;;1.52;0.75;;;;;;;21.95;45.44;101508.94;5053963;28;20059;-30
2022/09/18 02:46:05;;;;;;;2.72;1.08;;;;;;;21.96;45.50;101511.50;5054568;28;20292;-31
2022/09/18 02:48:36;;;;;;;3.70;1.42;;;;;;;21.94;45.68;101518.88;5046898;28;20071;-31
2022/09/18 02:51:08;;;;;;;1.75;0.73;;;;;;;21.93;45.61;101509.06;5053529;28;20444;-44
2022/09/18 02:53:48;;;;;;;2.78;1.00;;;;;;;21.93;45.26;101525.22;5052760;28;20036;-32
2022/09/18 02:56:35;;;;;;;3.17;1.10;;;;;;;21.92;45.50;101516.28;5054646;28;20438;-43
2022/09/18 02:59:10;;;;;;;1.23;0.80;;;;;;;21.96;45.35;101521.44;5035664;28;20065;-44
2022/09/18 03:01:38;;;;;;;1.27;1.10;;;;;;;21.92;45.54;101512.75;5053346;28;20548;-44
2022/09/18 03:04:08;;;;;;;0.65;0.55;;;;;;;21.84;45.52;101513.38;5053995;28;20024;-44
2022/09/18 03:06:33;;;;;;;1.27;0.82;;;;;;;21.89;45.84;101504.91;5054097;28;20752;-44
2022/09/18 03:08:59;;;;;;;2.20;1.00;;;;;;;21.88;45.35;101504.06;5053971;28;20034;-45
2022/09/18 03:11:24;;;;;;;2.45;0.85;;;;;;;21.88;45.39;101498.66;5053283;28;20490;-31
2022/09/18 03:13:50;;;;;;;2.45;1.10;;;;;;;21.88;45.42;101509.44;5051797;28;20044;-44
2022/09/18 03:16:18;;;;;;;3.08;1.02;;;;;;;21.86;45.51;101511.41;5053246;28;20175;-44
2022/09/18 03:18:43;;;;;;;2.17;0.98;;;;;;;21.84;45.70;101510.69;5053339;28;21472;-44
2022/09/18 03:21:09;;;;;;;2.28;0.88;;;;;;;21.82;45.46;101507.25;5054071;28;20050;-31
2022/09/18 03:23:34;;;;;;;2.08;0.80;;;;;;;21.82;45.66;101509.09;5054279;28;20123;-31
2022/09/18 03:25:59;;;;;;;2.47;0.85;;;;;;;21.82;45.55;101501.88;5052311;28;20047;-30
2022/09/18 03:28:25;;;;;;;1.90;0.90;;;;;;;21.85;45.53;101495.38;5049242;28;21378;-30
2022/09/18 03:30:50;;;;;;;2.25;0.80;;;;;;;21.83;45.59;101497.31;5052870;28;20922;-44
2022/09/18 03:33:16;;;;;;;2.67;0.98;;;;;;;21.84;45.53;101490.94;5053540;28;20133;-44
2022/09/18 03:35:42;;;;;;;1.52;0.80;;;;;;;21.80;45.49;101494.88;5034209;28;20148;-44
2022/09/18 03:38:08;;;;;;;1.75;0.90;;;;;;;21.82;45.59;101490.25;5054383;28;20058;-44
2022/09/18 03:40:33;;;;;;;2.50;1.00;;;;;;;21.85;45.63;101484.56;5058450;28;20535;-45
2022/09/18 03:42:59;;;;;;;3.45;0.95;;;;;;;21.82;45.68;101484.84;5038803;28;20060;-44
2022/09/18 03:45:24;;;;;;;3.72;1.02;;;;;;;21.79;45.86;101485.09;5052819;28;20051;-44
2022/09/18 03:47:50;;;;;;;2.25;0.90;;;;;;;21.81;45.66;101492.06;5068844;28;20127;-44
2022/09/18 03:50:15;;;;;;;3.17;1.13;;;;;;;21.77;45.48;101493.31;5033004;28;20024;-44
2022/09/18 03:52:41;;;;;;;3.30;1.00;;;;;;;21.74;45.54;101490.84;5053625;28;20055;-44
2022/09/18 03:55:07;;;;;;;4.38;1.35;;;;;;;21.80;45.49;101497.59;5052952;28;20432;-44
2022/09/18 03:57:32;;;;;;;2.65;0.98;;;;;;;21.79;45.68;101495.88;5039199;28;20036;-44
2022/09/18 03:59:57;;;;;;;1.90;0.90;;;;;;;21.76;45.68;101499.66;5052329;28;20032;-44
2022/09/18 04:02:23;;;;;;;2.08;1.00;;;;;;;21.78;45.74;101497.72;5033373;28;20615;-42
2022/09/18 04:04:48;;;;;;;2.28;1.00;;;;;;;21.75;45.71;101493.44;5056791;28;20048;-32
2022/09/18 04:07:14;;;;;;;2.40;0.88;;;;;;;21.78;45.88;101503.09;5057917;28;20521;-45
2022/09/18 04:09:39;;;;;;;3.28;1.10;;;;;;;21.75;45.98;101503.34;5057046;28;20066;-31
2022/09/18 04:12:05;;;;;;;2.83;0.80;;;;;;;21.73;45.59;101502.63;5057962;28;20038;-30
2022/09/18 04:14:30;;;;;;;3.03;1.02;;;;;;;21.71;45.77;101502.72;5040146;28;20032;-32
2022/09/18 04:16:56;;;;;;;4.28;1.02;;;;;;;21.74;45.88;101504.31;5058009;28;20043;-33
2022/09/18 04:19:21;;;;;;;2.42;0.88;;;;;;;21.74;45.71;101498.94;5055239;28;20032;-31
2022/09/18 04:21:46;;;;;;;2.42;1.00;;;;;;;21.74;45.76;101489.03;5037213;28;20728;-31
2022/09/18 04:24:14;;;;;;;2.50;1.02;;;;;;;21.72;45.73;101490.13;5040653;28;20044;-32
2022/09/18 04:26:40;;;;;;;2.72;1.10;;;;;;;21.72;45.62;101490.97;5056305;28;21775;-44
2022/09/18 04:29:05;;;;;;;2.60;0.93;;;;;;;21.71;45.71;101497.34;5056061;28;20074;-31
2022/09/18 04:31:30;;;;;;;2.58;1.02;;;;;;;21.71;45.90;101489.25;5056935;28;20037;-44
2022/09/18 04:33:56;;;;;;;2.22;0.82;;;;;;;21.72;45.58;101495.53;5054428;28;20106;-31
2022/09/18 04:36:21;;;;;;;2.13;0.90;;;;;;;21.73;45.59;101495.38;5056565;28;20033;-32
2022/09/18 04:38:46;;;;;;;2.08;0.90;;;;;;;21.74;45.66;101494.41;5056593;28;20551;-31
2022/09/18 04:41:12;;;;;;;3.17;1.00;;;;;;;21.71;45.64;101510.81;5056958;28;20047;-44
2022/09/18 04:43:37;;;;;;;2.78;0.82;;;;;;;21.70;45.69;101505.56;5055700;28;20108;-45
2022/09/18 04:46:03;;;;;;;2.28;0.80;;;;;;;21.67;45.88;101503.13;5056924;28;20170;-44
2022/09/18 04:48:28;;;;;;;2.30;0.75;;;;;;;21.67;45.55;101487.81;5055768;28;21478;-32
2022/09/18 04:50:54;;;;;;;2.85;0.82;;;;;;;21.69;45.47;101490.34;5036577;28;20028;-44
2022/09/18 04:53:19;;;;;;;3.22;1.08;;;;;;;21.69;45.66;101491.25;5054647;28;20036;-44
2022/09/18 04:55:46;;;;;;;2.38;1.20;;;;;;;21.66;45.66;101486.06;5057651;28;20032;-33
2022/09/18 04:58:13;;;;;;;2.25;1.08;;;;;;;21.64;45.92;101479.09;5056413;28;20503;-32
2022/09/18 05:00:39;;;;;;;1.48;0.73;;;;;;;21.67;45.88;101482.41;5055238;28;20043;-31
2022/09/18 05:03:05;;;;;;;3.63;1.00;;;;;;;21.66;45.73;101464.50;5055047;28;20036;-32
2022/09/18 05:05:30;;;;;;;1.27;0.70;;;;;;;21.64;46.11;101473.72;5051120;28;20583;-44
2022/09/18 05:08:00;;;;;;;1.52;0.70;;;;;;;21.64;45.75;101463.81;5054652;28;20033;-31
2022/09/18 05:10:26;;;;;;;3.95;0.95;;;;;;;21.66;45.47;101464.50;5055717;28;20551;-44
2022/09/18 05:12:52;;;;;;;1.73;0.73;;;;;;;21.63;45.89;101463.94;5055488;28;20044;-44
2022/09/18 05:15:19;;;;;;;2.42;0.90;;;;;;;21.61;45.59;101466.72;5054830;28;20038;-32
2022/09/18 05:17:45;;;;;;;2.13;0.88;;;;;;;21.64;46.03;101473.72;5054328;28;20043;-44
2022/09/18 05:20:10;;;;;;;1.48;0.77;;;;;;;21.65;45.64;101460.13;5056302;28;20036;-44
2022/09/18 05:22:36;;;;;;;2.13;0.80;;;;;;;21.61;45.84;101464.03;5055421;28;20896;-32
2022/09/18 05:25:02;;;;;;;1.80;0.70;;;;;;;21.60;45.96;101465.88;5055887;28;20793;-44
2022/09/18 05:27:28;;;;;;;2.92;1.00;;;;;;;21.60;46.00;101465.88;5054324;28;20122;-30
2022/09/18 05:29:54;;;;;;;2.03;0.77;;;;;;;21.64;45.82;101465.63;5057035;28;20064;-44
2022/09/18 05:32:19;;;;;;;2.22;0.90;;;;;;;21.59;45.98;101466.03;5054419;28;20036;-44
2022/09/18 05:34:45;;;;;;;3.00;0.85;;;;;;;21.58;45.78;101472.38;5055471;28;20106;-44
2022/09/18 05:37:12;;;;;;;2.97;1.00;;;;;;;21.52;46.66;101462.06;5054982;28;20099;-44
2022/09/18 05:39:37;;;;;;;3.90;1.00;;;;;;;21.54;45.97;101455.56;5056134;28;20319;-44
2022/09/18 05:42:03;;;;;;;3.35;1.00;;;;;;;21.57;46.25;101462.59;5053977;28;20254;-44
2022/09/18 05:44:28;;;;;;;3.55;0.93;;;;;;;21.53;46.15;101459.25;5055187;28;20028;-44
2022/09/18 05:46:54;;;;;;;2.97;0.90;;;;;;;21.53;46.45;101464.63;5054008;28;20186;-44
2022/09/18 05:49:20;;;;;;;2.85;1.05;;;;;;;21.57;45.96;101466.16;5054614;28;20028;-33
2022/09/18 05:51:45;;;;;;;2.28;0.80;;;;;;;21.54;46.23;101460.13;5054479;28;20081;-31
2022/09/18 05:54:10;;;;;;;1.65;0.80;;;;;;;21.56;46.35;101459.03;5053050;28;20757;-43
2022/09/18 05:56:36;;;;;;;1.13;0.80;;;;;;;21.50;46.11;101459.50;5055237;28;20039;-30
2022/09/18 05:59:01;;;;;;;3.75;1.02;;;;;;;21.55;46.38;101461.88;5069672;27;20067;-31
2022/09/18 06:01:31;;;;;;;3.20;0.98;;;;;;;21.65;46.12;101475.44;5052868;28;20114;-31
2022/09/18 06:03:58;;;;;;;1.77;0.90;;;;;;;21.84;45.40;101470.25;5054021;28;20602;-43
2022/09/18 06:06:27;;;;;;;2.55;0.85;;;;;;;21.98;45.03;101460.16;5053257;28;20033;-44
2022/09/18 06:08:52;;;;;;;2.53;1.00;;;;;;;22.06;45.19;101463.91;5035644;28;20029;-44
2022/09/18 06:11:17;;;;;;;2.58;1.05;;;;;;;22.12;44.79;101454.44;5035132;28;20040;-44
2022/09/18 06:13:43;;;;;;;3.60;1.10;;;;;;;22.21;44.81;101447.41;5035630;28;20035;-44
2022/09/18 06:16:08;;;;;;;1.75;0.90;;;;;;;22.30;45.01;101460.13;5053796;28;20124;-32
2022/09/18 06:18:34;;;;;;;1.95;0.90;;;;;;;22.38;44.95;101454.13;5054117;28;20510;-30
2022/09/18 06:20:59;;;;;;;2.17;1.08;;;;;;;22.47;45.05;101457.84;5054322;28;21304;-45
2022/09/18 06:23:26;;;;;;;2.10;0.90;;;;;;;;;;5035464;28;20543;-45
2022/09/18 06:26:00;;;;;;;1.88;0.90;;;;;;;22.55;44.80;101448.13;5049191;28;20522;-30
2022/09/18 06:28:26;;;;;;;1.88;0.80;;;;;;;22.58;44.41;101463.19;5053528;28;20098;-31
2022/09/18 06:30:57;;;;;;;1.13;0.70;;;;;;;22.58;44.80;101455.97;5054241;28;20027;-31
2022/09/18 06:33:23;;;;;;;2.13;0.90;;;;;;;22.58;44.74;101455.09;5054087;28;20108;-30
2022/09/18 06:35:48;;;;;;;3.47;1.05;;;;;;;22.57;44.82;101458.78;5054389;28;20057;-32
2022/09/18 06:38:15;;;;;;;2.33;0.90;;;;;;;22.55;45.07;101461.59;5067044;27;20632;-30
2022/09/18 06:40:50;;;;;;;3.38;0.90;;;;;;;22.56;45.08;101462.47;5055001;28;20048;-33
2022/09/18 06:43:15;;;;;;;1.52;0.80;;;;;;;22.56;45.23;101457.09;5053840;28;20040;-44
2022/09/18 06:45:41;;;;;;;3.13;0.90;;;;;;;22.56;45.33;101451.69;5053759;28;20055;-30
2022/09/18 06:48:06;;;;;;;3.15;1.00;;;;;;;22.55;45.60;101456.22;5053401;28;20115;-44
2022/09/18 06:50:32;;;;;;;3.33;1.02;;;;;;;22.57;45.51;101453.38;5054907;28;20039;-30
2022/09/18 06:53:05;;;;;;;1.75;0.80;;;;;;;22.55;45.44;101464.31;5054330;28;20392;-31
2022/09/18 06:55:30;;;;;;;1.58;0.95;;;;;;;22.54;45.36;101457.19;5036375;28;20036;-44
2022/09/18 06:57:57;;;;;;;2.85;0.98;;;;;;;22.53;45.52;101468.13;5054079;28;20038;-31
2022/09/18 07:00:23;;;;;;;2.70;1.05;;;;;;;;;;5053560;28;20687;-31
2022/09/18 07:02:59;;;;;;;1.98;0.90;;;;;;;22.51;45.64;101462.03;5053996;28;20042;-44
2022/09/18 07:05:27;;;;;;;3.97;1.20;;;;;;;22.50;45.39;101457.59;5035586;28;21008;-43
2022/09/18 07:07:53;;;;;;;3.13;1.13;;;;;;;22.47;45.68;101456.03;5053619;28;20660;-44
2022/09/18 07:10:19;;;;;;;2.45;1.20;;;;;;;22.48;45.66;101467.66;5053924;28;20834;-33
2022/09/18 07:12:47;;;;;;;4.07;1.17;;;;;;;22.47;45.36;101463.25;5052422;28;20041;-31
2022/09/18 07:15:17;;;;;;;2.60;1.20;;;;;;;22.45;45.52;101467.94;5053732;28;21450;-31
2022/09/18 07:17:43;;;;;;;3.80;1.40;;;;;;;22.43;45.66;101468.09;5053556;28;20429;-31
2022/09/18 07:20:10;;;;;;;2.78;1.40;;;;;;;22.42;45.60;101460.97;5054620;28;20492;-33
2022/09/18 07:22:36;;;;;;;3.95;1.10;;;;;;;22.41;45.78;101467.34;5053171;28;20073;-30
2022/09/18 07:25:01;;;;;;;4.05;1.30;;;;;;;22.40;45.58;101466.50;5052338;28;20032;-44
2022/09/18 07:27:30;;;;;;;2.00;1.00;;;;;;;22.38;45.76;101468.47;5054073;28;20040;-33
2022/09/18 07:29:56;;;;;;;3.28;1.35;;;;;;;22.38;45.46;101462.22;5055113;28;20067;-31
2022/09/18 07:32:22;;;;;;;3.75;1.20;;;;;;;22.37;45.63;101461.34;5068721;28;20119;-30
2022/09/18 07:34:48;;;;;;;2.75;1.08;;;;;;;22.36;45.87;101458.75;5033741;28;20044;-31
2022/09/18 07:37:13;;;;;;;2.85;1.10;;;;;;;22.35;45.62;101463.28;5054836;28;20104;-43
2022/09/18 07:39:39;;;;;;;3.00;1.20;;;;;;;22.35;45.64;101457.03;5058815;28;20058;-32
2022/09/18 07:42:04;;;;;;;2.38;1.00;;;;;;;22.32;45.57;101457.31;5056995;28;20066;-44
2022/09/18 07:44:33;;;;;;;1.95;1.08;;;;;;;22.31;45.98;101451.03;5056927;28;20489;-44
2022/09/18 07:46:58;;;;;;;2.45;1.00;;;;;;;22.31;45.64;101452.91;5058595;28;20123;-32
2022/09/18 07:49:24;;;;;;;3.08;1.10;;;;;;;22.31;45.92;101453.75;5071131;27;20254;-31
2022/09/18 07:51:49;;;;;;;4.30;1.13;;;;;;;22.31;45.65;101447.50;5057014;28;20043;-31
2022/09/18 07:54:15;;;;;;;2.63;1.05;;;;;;;22.30;45.85;101462.81;5071890;27;20158;-44
2022/09/18 07:56:40;;;;;;;3.97;1.10;;;;;;;22.30;45.58;101484.41;5057137;28;20086;-44
2022/09/18 07:59:06;;;;;;;3.25;1.27;;;;;;;22.30;45.85;101481.69;5058797;28;20072;-32
2022/09/18 08:01:33;;;;;;;3.00;1.17;;;;;;;22.30;45.87;101478.16;5057186;28;20040;-31
2022/09/18 08:04:00;;;;;;;3.58;1.30;;;;;;;22.25;46.08;101468.63;5057239;28;20029;-43
2022/09/18 08:06:26;;;;;;;1.75;1.08;;;;;;;22.25;46.01;101463.22;5057277;28;20480;-44
2022/09/18 08:08:51;;;;;;;3.25;1.30;;;;;;;22.21;45.77;101456.38;5057607;28;20082;-43
2022/09/18 08:11:17;;;;;;;4.88;1.20;;;;;;;22.18;46.01;101458.47;5058075;28;20698;-43
2022/09/18 08:13:42;;;;;;;3.55;1.40;;;;;;;22.18;46.03;101459.31;5057176;28;20363;-44
2022/09/18 08:16:08;;;;;;;3.30;1.30;;;;;;;22.16;46.25;101472.09;5055909;28;20661;-44
2022/09/18 08:18:37;;;;;;;4.35;1.20;;;;;;;22.14;46.06;101468.66;5057106;28;20740;-31
2022/09/18 08:21:02;;;;;;;3.08;1.20;;;;;;;22.12;46.07;101469.78;5057255;28;20038;-31
2022/09/18 08:23:28;;;;;;;3.00;1.08;;;;;;;22.08;46.18;101461.09;5072057;27;20117;-44
2022/09/18 08:25:53;;;;;;;2.70;1.00;;;;;;;22.09;46.59;101468.19;5056970;28;20052;-31
2022/09/18 08:28:19;;;;;;;3.10;1.17;;;;;;;22.10;46.37;101462.66;5055950;28;20036;-33
2022/09/18 08:30:44;;;;;;;2.92;1.00;;;;;;;22.08;46.44;101461.97;5057559;28;20032;-30
2022/09/18 08:33:09;;;;;;;3.78;1.25;;;;;;;22.07;46.44;101460.25;5057174;28;20036;-31
2022/09/18 08:35:35;;;;;;;3.90;1.13;;;;;;;22.08;46.44;101458.38;5056031;28;20362;-44
2022/09/18 08:38:00;;;;;;;3.67;1.05;;;;;;;22.06;46.69;101457.69;5056950;28;20148;-44
2022/09/18 08:41:01;;;;;;;3.58;1.35;;;;;;;22.01;46.91;101455.34;5045478;28;20078;-43
2022/09/18 08:43:26;;;;;;;3.63;1.13;;;;;;;22.04;47.02;101459.63;5041906;28;20520;-43
2022/09/18 08:46:07;;;;;;;3.95;1.20;;;;;;;22.02;47.01;101459.78;5037562;28;20049;-44
2022/09/18 08:48:55;;;;;;;3.58;1.23;;;;;;;22.04;46.98;101460.47;5054622;28;20126;-31
2022/09/18 08:51:41;;;;;;;2.90;1.20;;;;;;;22.03;46.92;101460.63;5048400;28;20040;-31
2022/09/18 08:54:22;;;;;;;3.22;1.35;;;;;;;22.04;46.84;101451.53;5057402;28;20675;-30
2022/09/18 08:56:50;;;;;;;3.22;1.30;;;;;;;22.01;46.83;101452.66;5056175;28;20028;-45
2022/09/18 08:59:39;;;;;;;3.58;1.25;;;;;;;22.00;47.04;101455.50;5056603;28;20044;-46
2022/09/18 09:02:11;;;;;;;4.57;1.40;;;;;;;22.04;46.83;101454.25;5054757;28;20498;-33
2022/09/18 09:04:36;;;;;;;3.80;1.20;;;;;;;22.02;46.88;101451.69;5054708;28;20036;-32
2022/09/18 09:07:07;;;;;;;2.15;1.10;;;;;;;22.01;46.51;101455.34;5057102;28;20054;-46
2022/09/18 09:09:47;;;;;;;2.40;1.15;;;;;;;22.03;46.79;101447.13;5056075;28;20067;-32
2022/09/18 09:12:25;;;;;;;2.30;1.10;;;;;;;22.09;46.45;101455.56;5056227;28;20047;-41
2022/09/18 09:15:20;;;;;;;2.85;1.10;;;;;;;22.08;46.61;101445.78;5055523;28;20036;-34
2022/09/18 09:17:48;;;;;;;2.67;1.27;;;;;;;22.12;46.85;101446.34;5055311;28;20035;-46
2022/09/18 09:20:19;;;;;;;3.40;1.20;;;;;;;22.17;46.19;101437.88;5038008;28;20069;-33
2022/09/18 09:23:00;;;;;;;1.75;0.90;;;;;;;22.13;46.38;101436.44;5055063;28;20047;-44
2022/09/18 09:25:38;;;;;;;2.78;1.20;;;;;;;22.09;46.57;101439.38;5041169;28;20058;-43
2022/09/18 09:28:15;;;;;;;2.63;1.17;;;;;;;22.14;46.91;101463.28;5055959;28;20120;-43
2022/09/18 09:30:44;;;;;;;3.05;1.15;;;;;;;22.18;46.80;101474.66;5054628;28;20024;-44
2022/09/18 09:33:22;;;;;;;3.28;1.10;;;;;;;22.20;46.63;101499.66;5053654;28;20024;-32
2022/09/18 09:35:52;;;;;;;3.15;1.17;;;;;;;22.18;46.06;101480.91;5052618;28;20058;-30
2022/09/18 09:38:31;;;;;;;2.47;1.15;;;;;;;22.14;46.84;101484.00;5055175;28;20527;-43
2022/09/18 09:41:00;;;;;;;6.80;1.30;;;;;;;22.13;46.90;101477.75;5045951;28;20024;-43
2022/09/18 09:43:37;;;;;;;2.63;1.10;;;;;;;22.33;46.58;101480.59;5047309;28;20113;-34
2022/09/18 09:46:12;;;;;;;3.92;1.33;;;;;;;22.48;46.44;101465.84;5048553;28;20032;-34
2022/09/18 09:48:51;;;;;;;5.95;1.02;;;;;;;22.58;46.22;101476.69;5048205;28;20453;-42
2022/09/18 09:51:25;;;;;;;2.13;0.90;;;;;;;22.63;46.03;101474.44;5045694;28;20572;-42
2022/09/18 09:53:54;;;;;;;2.42;0.93;;;;;;;22.65;46.00;101467.06;5048418;28;20028;-45
2022/09/18 09:57:01;;;;;;;4.93;1.10;;;;;;;22.68;46.30;101463.25;5048368;28;20082;-45
2022/09/18 09:59:30;;;;;;;4.20;1.20;;;;;;;22.68;46.12;101458.69;5031034;28;20091;-46
2022/09/18 10:02:21;;;;;;;2.60;1.08;;;;;;;22.71;46.29;101465.69;5047743;28;20582;-46
2022/09/18 10:04:56;;;;;;;2.22;0.90;;;;;;;22.73;46.19;101451.06;5049122;28;20492;-32
2022/09/18 10:07:36;;;;;;;2.00;1.10;;;;;;;22.75;46.15;101456.34;5047700;28;20056;-32
2022/09/18 10:10:07;;;;;;;2.15;0.98;;;;;;;22.78;46.02;101457.94;5049717;28;20032;-43
2022/09/18 10:12:38;;;;;;;5.03;1.08;;;;;;;22.80;46.39;101447.81;5048391;28;20036;-43
2022/09/18 10:15:13;;;;;;;;;;;;;;;22.81;46.33;101455.78;5050745;28;20181;-43
2022/09/18 10:17:40;;;;;;;7.20;1.02;;;;;;;22.84;46.36;101451.97;5047561;28;20644;-43
2022/09/18 10:20:13;;;;;;;24.52;2.50;;;;;;;22.86;46.39;101450.00;5050612;28;20683;-34
2022/09/18 10:22:39;;;;;;;7.00;1.60;;;;;;;22.87;46.64;101459.81;5050074;28;20070;-33
2022/09/18 10:25:26;;;;;;;4.10;1.10;;;;;;;22.86;46.26;101460.78;5050436;28;20041;-31
2022/09/18 10:27:51;;;;;;;10.30;1.70;;;;;;;22.84;46.47;101473.56;5049898;28;20493;-31
2022/09/18 10:30:17;;;;;;;10.45;1.50;;;;;;;22.84;46.34;101482.53;5050460;28;20043;-32
2022/09/18 10:32:42;;;;;;;8.68;1.48;;;;;;;22.86;46.01;101483.25;5051235;28;20032;-43
2022/09/18 10:35:29;;;;;;;7.38;1.40;;;;;;;22.86;46.47;101480.53;5049444;28;20305;-33
2022/09/18 10:37:55;;;;;;;7.78;1.48;;;;;;;22.87;46.34;101478.72;5049348;28;20028;-43
2022/09/18 10:40:35;;;;;;;11.38;1.67;;;;;;;22.85;46.35;101484.25;5050121;28;20158;-43
2022/09/18 10:43:02;;;;;;;6.80;1.30;;;;;;;22.85;46.58;101478.84;5049762;28;20372;-42
2022/09/18 10:45:30;;;;;;;8.32;1.38;;;;;;;22.84;46.53;101482.53;5050654;28;20040;-31
2022/09/18 10:48:12;;;;;;;10.43;1.52;;;;;;;22.85;46.72;101481.56;5049367;28;20114;-43
2022/09/18 10:50:50;;;;;;;8.32;1.70;;;;;;;22.87;46.61;101476.84;5049300;28;20021;-43
2022/09/18 10:53:33;;;;;;;7.38;1.50;;;;;;;22.84;46.60;101482.53;5049051;28;20040;-31
2022/09/18 10:56:04;;;;;;;7.07;1.83;;;;;;;22.86;46.79;101491.34;5048538;28;20036;-34
2022/09/18 10:58:31;;;;;;;;;;;;;;;22.86;46.40;101494.03;5049955;28;20060;-34
2022/09/18 11:01:06;;;;;;;11.23;1.70;;;;;;;22.88;46.55;101493.94;5048589;28;19924;-33
2022/09/18 11:04:01;;;;;;;9.23;1.60;;;;;;;22.87;46.61;101476.00;5049781;28;20613;-44
2022/09/18 11:06:29;;;;;;;8.95;1.98;;;;;;;22.87;46.63;101474.16;5046367;28;20111;-43
2022/09/18 11:08:58;;;;;;;8.35;2.28;;;;;;;22.88;46.59;101481.28;5049892;28;20645;-44
2022/09/18 11:11:33;;;;;;;8.27;1.70;;;;;;;22.89;46.86;101482.13;5048072;28;20123;-43
2022/09/18 11:14:05;;;;;;;6.30;1.70;;;;;;;22.89;46.86;101476.72;5053001;28;20459;-33
2022/09/18 11:16:37;;;;;;;10.85;2.03;;;;;;;22.91;46.89;101481.00;5053132;28;20032;-34
2022/09/18 11:19:25;;;;;;;9.07;1.83;;;;;;;22.92;46.81;101480.00;5054004;28;20036;-32
2022/09/18 11:21:55;;;;;;;7.68;1.52;;;;;;;22.95;46.84;101480.75;5053006;28;20070;-31
2022/09/18 11:24:32;;;;;;;5.33;1.70;;;;;;;22.95;46.89;101481.59;5054303;28;20040;-31
2022/09/18 11:27:00;;;;;;;7.78;1.60;;;;;;;22.96;47.21;101490.56;5052802;28;20297;-30
2022/09/18 11:29:38;;;;;;;6.18;1.70;;;;;;;22.96;46.90;101477.91;5053779;28;20575;-45
2022/09/18 11:32:28;;;;;;;8.88;1.40;;;;;;;22.98;46.69;101466.97;5051809;28;20089;-31
2022/09/18 11:34:56;;;;;;;10.82;1.58;;;;;;;22.99;47.04;101474.06;5052544;28;21392;-31
2022/09/18 11:37:35;;;;;;;8.38;1.58;;;;;;;22.99;47.11;101476.78;5054003;28;20434;-43
2022/09/18 11:40:07;;;;;;;9.45;1.50;;;;;;;22.99;47.02;101472.25;5053364;28;20038;-43
2022/09/18 11:42:42;;;;;;;5.30;1.33;;;;;;;22.99;47.28;101474.06;5054074;28;20043;-42